sensor_id;sensor_type;location;lat;lon;timestamp;pressure;altitude;pressure_sealevel;temperature;humidity
77877;BME280;67251;50.844;7.978;2023-02-01T00:01:10;99168.56;;;2.33;89.71
77877;BME280;67251;50.844;7.978;2023-02-01T00:03:35;99161.31;;;2.35;89.88
77877;BME280;67251;50.844;7.978;2023-02-01T00:06:02;99158.41;;;2.38;89.89
77877;BME280;67251;50.844;7.978;2023-02-01T00:08:28;99162.59;;;2.41;89.93
77877;BME280;67251;50.844;7.978;2023-02-01T00:11:05;99162.44;;;2.42;89.85
77877;BME280;67251;50.844;7.978;2023-02-01T00:13:32;99166.31;;;2.48;90.05
77877;BME280;67251;50.844;7.978;2023-02-01T00:16:05;99152.84;;;2.51;89.96
77877;BME280;67251;50.844;7.978;2023-02-01T00:18:31;99155.03;;;2.55;89.93
77877;BME280;67251;50.844;7.978;2023-02-01T00:20:56;99150.84;;;2.63;89.45
77877;BME280;67251;50.844;7.978;2023-02-01T00:23:22;99143.19;;;2.69;89.20
77877;BME280;67251;50.844;7.978;2023-02-01T00:25:47;99146.34;;;2.73;89.38
77877;BME280;67251;50.844;7.978;2023-02-01T00:28:15;99147.75;;;2.77;88.65
77877;BME280;67251;50.844;7.978;2023-02-01T00:30:41;99151.66;;;2.83;87.91
77877;BME280;67251;50.844;7.978;2023-02-01T00:33:06;99158.28;;;2.87;88.19
77877;BME280;67251;50.844;7.978;2023-02-01T00:35:33;99156.34;;;2.89;87.86
77877;BME280;67251;50.844;7.978;2023-02-01T00:37:59;99167.59;;;2.91;87.48
77877;BME280;67251;50.844;7.978;2023-02-01T00:40:25;99163.13;;;2.91;87.49
77877;BME280;67251;50.844;7.978;2023-02-01T00:42:51;99153.25;;;2.93;87.25
77877;BME280;67251;50.844;7.978;2023-02-01T00:45:17;99166.16;;;2.96;86.94
77877;BME280;67251;50.844;7.978;2023-02-01T00:47:42;99159.09;;;2.97;87.34
77877;BME280;67251;50.844;7.978;2023-02-01T00:50:08;99166.03;;;2.98;87.34
77877;BME280;67251;50.844;7.978;2023-02-01T00:52:34;99162.25;;;3.00;87.31
77877;BME280;67251;50.844;7.978;2023-02-01T00:54:59;99151.56;;;3.02;87.27
77877;BME280;67251;50.844;7.978;2023-02-01T00:57:24;99160.31;;;3.02;86.85
77877;BME280;67251;50.844;7.978;2023-02-01T00:59:50;99147.94;;;3.03;86.65
77877;BME280;67251;50.844;7.978;2023-02-01T01:02:15;99145.13;;;3.04;86.17
77877;BME280;67251;50.844;7.978;2023-02-01T01:04:41;99142.38;;;3.06;86.20
77877;BME280;67251;50.844;7.978;2023-02-01T01:07:06;99137.91;;;3.06;85.99
77877;BME280;67251;50.844;7.978;2023-02-01T01:09:31;99139.72;;;3.06;85.92
77877;BME280;67251;50.844;7.978;2023-02-01T01:11:57;99151.13;;;3.06;86.30
77877;BME280;67251;50.844;7.978;2023-02-01T01:14:30;99153.63;;;3.08;86.08
77877;BME280;67251;50.844;7.978;2023-02-01T01:16:55;99142.22;;;3.07;86.48
77877;BME280;67251;50.844;7.978;2023-02-01T01:19:21;99137.91;;;3.06;86.42
77877;BME280;67251;50.844;7.978;2023-02-01T01:21:46;99129.81;;;3.08;86.55
77877;BME280;67251;50.844;7.978;2023-02-01T01:24:12;99124.38;;;3.10;86.54
77877;BME280;67251;50.844;7.978;2023-02-01T01:26:37;99114.63;;;3.10;86.93
77877;BME280;67251;50.844;7.978;2023-02-01T01:29:03;99107.56;;;3.11;87.04
77877;BME280;67251;50.844;7.978;2023-02-01T01:31:29;99103.22;;;3.10;87.57
77877;BME280;67251;50.844;7.978;2023-02-01T01:33:56;99099.75;;;3.09;87.26
77877;BME280;67251;50.844;7.978;2023-02-01T01:36:23;99092.53;;;3.11;87.07
77877;BME280;67251;50.844;7.978;2023-02-01T01:38:48;99092.81;;;3.08;86.63
77877;BME280;67251;50.844;7.978;2023-02-01T01:41:32;99102.28;;;3.11;86.30
77877;BME280;67251;50.844;7.978;2023-02-01T01:44:00;99098.50;;;3.13;85.54
77877;BME280;67251;50.844;7.978;2023-02-01T01:46:35;99096.38;;;3.17;85.65
77877;BME280;67251;50.844;7.978;2023-02-01T01:49:17;99097.88;;;3.19;84.02
77877;BME280;67251;50.844;7.978;2023-02-01T01:56:58;99115.88;;;3.16;84.17
77877;BME280;67251;50.844;7.978;2023-02-01T01:59:26;99113.53;;;3.13;83.61
77877;BME280;67251;50.844;7.978;2023-02-01T02:01:52;99112.53;;;3.14;83.63
77877;BME280;67251;50.844;7.978;2023-02-01T02:04:18;99121.47;;;3.13;83.91
77877;BME280;67251;50.844;7.978;2023-02-01T02:07:04;99118.13;;;3.11;84.57
77877;BME280;67251;50.844;7.978;2023-02-01T02:09:30;99131.34;;;3.11;84.93
77877;BME280;67251;50.844;7.978;2023-02-01T02:11:56;99132.84;;;3.13;84.98
77877;BME280;67251;50.844;7.978;2023-02-01T02:14:23;99127.56;;;3.13;84.50
77877;BME280;67251;50.844;7.978;2023-02-01T02:17:01;99137.31;;;3.13;84.53
77877;BME280;67251;50.844;7.978;2023-02-01T02:31:12;99103.97;;;3.02;85.07
77877;BME280;67251;50.844;7.978;2023-02-01T02:36:55;99105.25;;;2.98;84.92
77877;BME280;67251;50.844;7.978;2023-02-01T02:39:41;99096.94;;;2.93;83.63
77877;BME280;67251;50.844;7.978;2023-02-01T02:42:20;99082.88;;;2.92;83.09
77877;BME280;67251;50.844;7.978;2023-02-01T02:45:20;99085.97;;;2.88;83.19
77877;BME280;67251;50.844;7.978;2023-02-01T02:48:17;99085.69;;;2.81;83.61
77877;BME280;67251;50.844;7.978;2023-02-01T02:50:51;99086.28;;;2.75;83.54
77877;BME280;67251;50.844;7.978;2023-02-01T02:53:52;99087.84;;;2.68;84.44
77877;BME280;67251;50.844;7.978;2023-02-01T02:56:41;99099.00;;;2.62;85.11
77877;BME280;67251;50.844;7.978;2023-02-01T02:59:26;99088.03;;;2.56;85.56
77877;BME280;67251;50.844;7.978;2023-02-01T03:02:13;99085.66;;;2.53;85.09
77877;BME280;67251;50.844;7.978;2023-02-01T03:04:57;99084.84;;;2.53;85.07
77877;BME280;67251;50.844;7.978;2023-02-01T03:08:25;99092.75;;;2.53;84.81
77877;BME280;67251;50.844;7.978;2023-02-01T03:13:23;99082.19;;;2.53;84.77
77877;BME280;67251;50.844;7.978;2023-02-01T03:18:37;99072.22;;;2.47;84.40
77877;BME280;67251;50.844;7.978;2023-02-01T03:21:08;99060.00;;;2.46;84.40
77877;BME280;67251;50.844;7.978;2023-02-01T03:23:36;99054.84;;;2.44;84.54
77877;BME280;67251;50.844;7.978;2023-02-01T03:26:06;99059.44;;;2.42;84.71
77877;BME280;67251;50.844;7.978;2023-02-01T03:28:33;99051.78;;;2.39;84.92
77877;BME280;67251;50.844;7.978;2023-02-01T03:31:01;99058.88;;;2.39;84.62
77877;BME280;67251;50.844;7.978;2023-02-01T03:33:27;99066.13;;;2.37;84.58
77877;BME280;67251;50.844;7.978;2023-02-01T03:36:10;99060.97;;;2.35;84.58
77877;BME280;67251;50.844;7.978;2023-02-01T03:41:37;99071.84;;;2.32;84.60
77877;BME280;67251;50.844;7.978;2023-02-01T03:46:50;99069.47;;;2.29;84.59
77877;BME280;67251;50.844;7.978;2023-02-01T03:49:25;99080.19;;;2.27;84.37
77877;BME280;67251;50.844;7.978;2023-02-01T03:51:52;99069.63;;;2.27;84.41
77877;BME280;67251;50.844;7.978;2023-02-01T03:54:19;99070.63;;;2.26;84.63
77877;BME280;67251;50.844;7.978;2023-02-01T03:56:47;99083.00;;;2.26;85.08
77877;BME280;67251;50.844;7.978;2023-02-01T03:59:14;99069.06;;;2.24;84.68
77877;BME280;67251;50.844;7.978;2023-02-01T04:01:40;99070.06;;;2.23;84.73
77877;BME280;67251;50.844;7.978;2023-02-01T04:04:06;99073.69;;;2.22;84.25
77877;BME280;67251;50.844;7.978;2023-02-01T04:06:32;99070.34;;;2.20;84.32
77877;BME280;67251;50.844;7.978;2023-02-01T04:08:57;99070.47;;;2.18;84.57
77877;BME280;67251;50.844;7.978;2023-02-01T04:11:23;99062.00;;;2.15;84.59
77877;BME280;67251;50.844;7.978;2023-02-01T04:13:48;99065.63;;;2.14;84.81
77877;BME280;67251;50.844;7.978;2023-02-01T04:16:13;99062.28;;;2.12;84.47
77877;BME280;67251;50.844;7.978;2023-02-01T04:18:39;99054.38;;;2.12;84.64
77877;BME280;67251;50.844;7.978;2023-02-01T04:21:05;99062.16;;;2.13;84.32
77877;BME280;67251;50.844;7.978;2023-02-01T04:23:30;99049.78;;;2.14;84.40
77877;BME280;67251;50.844;7.978;2023-02-01T04:26:00;99051.59;;;2.13;84.51
77877;BME280;67251;50.844;7.978;2023-02-01T04:28:26;99052.59;;;2.12;84.29
77877;BME280;67251;50.844;7.978;2023-02-01T04:30:52;99051.72;;;2.12;84.28
77877;BME280;67251;50.844;7.978;2023-02-01T04:33:17;99059.78;;;2.10;84.10
77877;BME280;67251;50.844;7.978;2023-02-01T04:35:42;99060.09;;;2.07;84.49
77877;BME280;67251;50.844;7.978;2023-02-01T04:38:08;99062.03;;;2.05;84.34
77877;BME280;67251;50.844;7.978;2023-02-01T04:40:33;99057.59;;;2.05;84.67
77877;BME280;67251;50.844;7.978;2023-02-01T04:43:00;99035.50;;;2.07;84.81
77877;BME280;67251;50.844;7.978;2023-02-01T04:45:26;99037.03;;;2.09;84.85
77877;BME280;67251;50.844;7.978;2023-02-01T04:47:51;99033.25;;;2.12;84.68
77877;BME280;67251;50.844;7.978;2023-02-01T04:50:17;99024.38;;;2.13;84.80
77877;BME280;67251;50.844;7.978;2023-02-01T04:52:42;99034.94;;;2.13;84.56
77877;BME280;67251;50.844;7.978;2023-02-01T04:55:10;99028.94;;;2.11;84.96
77877;BME280;67251;50.844;7.978;2023-02-01T04:57:35;99021.34;;;2.08;85.10
77877;BME280;67251;50.844;7.978;2023-02-01T05:00:01;99016.19;;;2.06;85.32
77877;BME280;67251;50.844;7.978;2023-02-01T05:02:27;99015.50;;;2.04;85.18
77877;BME280;67251;50.844;7.978;2023-02-01T05:04:52;99013.03;;;2.02;84.98
77877;BME280;67251;50.844;7.978;2023-02-01T05:07:19;99014.94;;;2.00;85.04
77877;BME280;67251;50.844;7.978;2023-02-01T05:09:44;99004.53;;;1.99;85.34
77877;BME280;67251;50.844;7.978;2023-02-01T05:12:09;99009.66;;;2.00;84.94
77877;BME280;67251;50.844;7.978;2023-02-01T05:14:54;99014.28;;;1.98;85.24
77877;BME280;67251;50.844;7.978;2023-02-01T05:17:19;99002.88;;;1.98;85.11
77877;BME280;67251;50.844;7.978;2023-02-01T05:19:44;99018.84;;;1.96;85.18
77877;BME280;67251;50.844;7.978;2023-02-01T05:22:10;99024.53;;;1.92;85.59
77877;BME280;67251;50.844;7.978;2023-02-01T05:24:35;99029.81;;;1.92;85.62
77877;BME280;67251;50.844;7.978;2023-02-01T05:27:00;99026.50;;;1.90;85.43
77877;BME280;67251;50.844;7.978;2023-02-01T05:29:26;99024.53;;;1.92;85.59
77877;BME280;67251;50.844;7.978;2023-02-01T05:31:51;99036.34;;;1.97;85.37
77877;BME280;67251;50.844;7.978;2023-02-01T05:34:16;99033.16;;;2.03;84.91
77877;BME280;67251;50.844;7.978;2023-02-01T05:36:42;99037.03;;;2.09;84.85
77877;BME280;67251;50.844;7.978;2023-02-01T05:39:07;99030.59;;;2.12;84.56
77877;BME280;67251;50.844;7.978;2023-02-01T05:41:33;99032.00;;;2.16;84.61
77877;BME280;67251;50.844;7.978;2023-02-01T05:44:01;99027.41;;;2.18;83.98
77877;BME280;67251;50.844;7.978;2023-02-01T05:46:27;99034.91;;;2.22;83.92
77877;BME280;67251;50.844;7.978;2023-02-01T05:48:53;99021.41;;;2.25;83.53
77877;BME280;67251;50.844;7.978;2023-02-01T05:51:18;99023.75;;;2.28;83.36
77877;BME280;67251;50.844;7.978;2023-02-01T05:53:43;99027.63;;;2.34;82.96
77877;BME280;67251;50.844;7.978;2023-02-01T05:56:09;99028.84;;;2.40;82.48
77877;BME280;67251;50.844;7.978;2023-02-01T05:58:34;99032.19;;;2.42;82.53
77877;BME280;67251;50.844;7.978;2023-02-01T06:01:00;99028.56;;;2.43;82.74
77877;BME280;67251;50.844;7.978;2023-02-01T06:03:26;99021.34;;;2.45;82.23
77877;BME280;67251;50.844;7.978;2023-02-01T06:05:52;99011.31;;;2.48;81.60
77877;BME280;67251;50.844;7.978;2023-02-01T06:08:18;99013.69;;;2.51;81.79
77877;BME280;67251;50.844;7.978;2023-02-01T06:10:43;99021.59;;;2.51;81.94
77877;BME280;67251;50.844;7.978;2023-02-01T06:13:08;99023.25;;;2.52;81.56
77877;BME280;67251;50.844;7.978;2023-02-01T06:15:34;99019.50;;;2.55;81.16
77877;BME280;67251;50.844;7.978;2023-02-01T06:18:00;99026.28;;;2.58;80.98
77877;BME280;67251;50.844;7.978;2023-02-01T06:20:26;99028.81;;;2.59;81.08
77877;BME280;67251;50.844;7.978;2023-02-01T06:22:51;99030.47;;;2.60;81.25
77877;BME280;67251;50.844;7.978;2023-02-01T06:25:18;99020.88;;;2.59;81.11
77877;BME280;67251;50.844;7.978;2023-02-01T06:27:44;99020.88;;;2.59;81.01
77877;BME280;67251;50.844;7.978;2023-02-01T06:30:11;99026.84;;;2.61;80.77
77877;BME280;67251;50.844;7.978;2023-02-01T06:32:39;99016.81;;;2.65;80.68
77877;BME280;67251;50.844;7.978;2023-02-01T06:35:06;99015.16;;;2.64;80.94
77877;BME280;67251;50.844;7.978;2023-02-01T06:37:32;99016.81;;;2.65;80.97
77877;BME280;67251;50.844;7.978;2023-02-01T06:39:58;99005.72;;;2.61;81.08
77877;BME280;67251;50.844;7.978;2023-02-01T06:42:23;98996.78;;;2.62;80.56
77877;BME280;67251;50.844;7.978;2023-02-01T06:44:49;98991.38;;;2.64;80.60
77877;BME280;67251;50.844;7.978;2023-02-01T06:47:14;99001.09;;;2.63;80.56
77877;BME280;67251;50.844;7.978;2023-02-01T06:49:40;98997.63;;;2.63;80.92
77877;BME280;67251;50.844;7.978;2023-02-01T06:52:05;99001.09;;;2.63;80.27
77877;BME280;67251;50.844;7.978;2023-02-01T06:54:31;99016.94;;;2.63;80.48
77877;BME280;67251;50.844;7.978;2023-02-01T06:56:58;99015.16;;;2.64;80.62
77877;BME280;67251;50.844;7.978;2023-02-01T06:59:24;99027.50;;;2.63;80.56
77877;BME280;67251;50.844;7.978;2023-02-01T07:01:49;99028.22;;;2.65;79.92
77877;BME280;67251;50.844;7.978;2023-02-01T07:04:15;99029.03;;;2.66;80.07
77877;BME280;67251;50.844;7.978;2023-02-01T07:06:40;99028.88;;;2.67;80.15
77877;BME280;67251;50.844;7.978;2023-02-01T07:09:06;99030.69;;;2.67;79.75
77877;BME280;67251;50.844;7.978;2023-02-01T07:11:32;99038.63;;;2.67;79.79
77877;BME280;67251;50.844;7.978;2023-02-01T07:13:58;99049.19;;;2.67;79.61
77877;BME280;67251;50.844;7.978;2023-02-01T07:16:23;99028.22;;;2.65;79.59
77877;BME280;67251;50.844;7.978;2023-02-01T07:18:50;99043.91;;;2.67;79.84
77877;BME280;67251;50.844;7.978;2023-02-01T07:21:16;99042.41;;;2.64;79.88
77877;BME280;67251;50.844;7.978;2023-02-01T07:23:41;99045.19;;;2.63;79.56
77877;BME280;67251;50.844;7.978;2023-02-01T07:26:09;99045.19;;;2.63;79.78
77877;BME280;67251;50.844;7.978;2023-02-01T07:28:35;99051.16;;;2.65;79.61
77877;BME280;67251;50.844;7.978;2023-02-01T07:31:08;99048.53;;;2.65;79.78
77877;BME280;67251;50.844;7.978;2023-02-01T07:33:34;99062.72;;;2.64;80.16
77877;BME280;67251;50.844;7.978;2023-02-01T07:36:01;99047.81;;;2.63;79.98
77877;BME280;67251;50.844;7.978;2023-02-01T07:38:28;99056.56;;;2.63;80.03
77877;BME280;67251;50.844;7.978;2023-02-01T07:41:00;99070.75;;;2.62;80.01
77877;BME280;67251;50.844;7.978;2023-02-01T07:43:27;99065.47;;;2.62;79.86
77877;BME280;67251;50.844;7.978;2023-02-01T07:45:54;99082.16;;;2.63;79.94
77877;BME280;67251;50.844;7.978;2023-02-01T07:48:21;99083.00;;;2.63;80.17
77877;BME280;67251;50.844;7.978;2023-02-01T07:50:46;99083.13;;;2.62;79.77
77877;BME280;67251;50.844;7.978;2023-02-01T07:53:12;99085.78;;;2.62;79.84
77877;BME280;67251;50.844;7.978;2023-02-01T07:55:38;99084.94;;;2.61;80.20
77877;BME280;67251;50.844;7.978;2023-02-01T07:58:04;99089.25;;;2.62;79.69
77877;BME280;67251;50.844;7.978;2023-02-01T08:00:29;99085.78;;;2.62;79.43
77877;BME280;67251;50.844;7.978;2023-02-01T08:03:13;99092.59;;;2.64;79.59
77877;BME280;67251;50.844;7.978;2023-02-01T08:05:38;99087.44;;;2.63;79.61
77877;BME280;67251;50.844;7.978;2023-02-01T08:08:04;99075.22;;;2.62;79.49
77877;BME280;67251;50.844;7.978;2023-02-01T08:10:30;99090.09;;;2.63;80.12
77877;BME280;67251;50.844;7.978;2023-02-01T08:12:59;99085.94;;;2.60;79.97
77877;BME280;67251;50.844;7.978;2023-02-01T08:15:26;99082.59;;;2.58;80.43
77877;BME280;67251;50.844;7.978;2023-02-01T08:17:52;99084.41;;;2.58;80.32
77877;BME280;67251;50.844;7.978;2023-02-01T08:20:19;99092.47;;;2.56;80.28
77877;BME280;67251;50.844;7.978;2023-02-01T08:22:46;99101.22;;;2.56;80.73
77877;BME280;67251;50.844;7.978;2023-02-01T08:25:13;99099.56;;;2.55;80.72
77877;BME280;67251;50.844;7.978;2023-02-01T08:27:38;99103.19;;;2.54;80.81
77877;BME280;67251;50.844;7.978;2023-02-01T08:30:05;99103.19;;;2.54;80.98
77877;BME280;67251;50.844;7.978;2023-02-01T08:32:33;99098.88;;;2.53;80.28
77877;BME280;67251;50.844;7.978;2023-02-01T08:34:58;99102.22;;;2.55;80.51
77877;BME280;67251;50.844;7.978;2023-02-01T08:37:24;99109.16;;;2.56;80.31
77877;BME280;67251;50.844;7.978;2023-02-01T08:39:49;99101.09;;;2.58;80.18
77877;BME280;67251;50.844;7.978;2023-02-01T08:42:16;99102.63;;;2.61;80.38
77877;BME280;67251;50.844;7.978;2023-02-01T08:45:00;99104.13;;;2.63;80.08
77877;BME280;67251;50.844;7.978;2023-02-01T08:47:25;99088.81;;;2.67;79.69
77877;BME280;67251;50.844;7.978;2023-02-01T08:49:51;99106.06;;;2.71;79.49
77877;BME280;67251;50.844;7.978;2023-02-01T08:52:17;99107.59;;;2.73;79.22
77877;BME280;67251;50.844;7.978;2023-02-01T08:54:42;99109.09;;;2.76;79.25
77877;BME280;67251;50.844;7.978;2023-02-01T08:57:08;99106.28;;;2.77;79.18
77877;BME280;67251;50.844;7.978;2023-02-01T08:59:35;99121.31;;;2.77;79.34
77877;BME280;67251;50.844;7.978;2023-02-01T09:02:00;99123.97;;;2.77;79.71
77877;BME280;67251;50.844;7.978;2023-02-01T09:04:26;99130.22;;;2.76;79.89
77877;BME280;67251;50.844;7.978;2023-02-01T09:06:51;99131.38;;;2.73;80.38
77877;BME280;67251;50.844;7.978;2023-02-01T09:09:17;99127.03;;;2.72;80.10
77877;BME280;67251;50.844;7.978;2023-02-01T09:11:42;99133.31;;;2.71;80.11
77877;BME280;67251;50.844;7.978;2023-02-01T09:14:08;99117.44;;;2.71;79.82
77877;BME280;67251;50.844;7.978;2023-02-01T09:16:33;99134.97;;;2.72;80.12
77877;BME280;67251;50.844;7.978;2023-02-01T09:18:59;99128.72;;;2.73;79.90
77877;BME280;67251;50.844;7.978;2023-02-01T09:21:24;99133.03;;;2.74;80.10
77877;BME280;67251;50.844;7.978;2023-02-01T09:23:50;99129.41;;;2.75;80.08
77877;BME280;67251;50.844;7.978;2023-02-01T09:26:16;99129.25;;;2.77;79.28
77877;BME280;67251;50.844;7.978;2023-02-01T09:28:41;99128.28;;;2.78;79.61
77877;BME280;67251;50.844;7.978;2023-02-01T09:31:07;99123.00;;;2.78;79.22
77877;BME280;67251;50.844;7.978;2023-02-01T09:33:32;99129.13;;;2.78;79.29
77877;BME280;67251;50.844;7.978;2023-02-01T09:36:03;99124.66;;;2.79;79.79
77877;BME280;67251;50.844;7.978;2023-02-01T09:38:29;99128.97;;;2.80;79.16
77877;BME280;67251;50.844;7.978;2023-02-01T09:40:55;99131.44;;;2.81;79.45
77877;BME280;67251;50.844;7.978;2023-02-01T09:43:32;99134.94;;;2.82;79.45
77877;BME280;67251;50.844;7.978;2023-02-01T09:48:41;99139.25;;;2.83;79.62
77877;BME280;67251;50.844;7.978;2023-02-01T09:51:31;99140.22;;;2.82;79.73
77877;BME280;67251;50.844;7.978;2023-02-01T09:54:04;99130.50;;;2.83;79.55
77877;BME280;67251;50.844;7.978;2023-02-01T09:56:49;99121.59;;;2.84;79.19
77877;BME280;67251;50.844;7.978;2023-02-01T09:59:44;99117.97;;;2.85;79.44
77877;BME280;67251;50.844;7.978;2023-02-01T10:02:19;99121.59;;;2.84;78.91
77877;BME280;67251;50.844;7.978;2023-02-01T10:04:46;99116.97;;;2.86;78.55
77877;BME280;67251;50.844;7.978;2023-02-01T10:07:37;99114.06;;;2.89;78.47
77877;BME280;67251;50.844;7.978;2023-02-01T10:10:15;99121.16;;;2.88;79.09
77877;BME280;67251;50.844;7.978;2023-02-01T10:25:55;99107.03;;;3.07;77.95
77877;BME280;67251;50.844;7.978;2023-02-01T10:28:22;99111.16;;;3.10;78.29
77877;BME280;67251;50.844;7.978;2023-02-01T10:30:52;99117.00;;;3.13;78.11
77877;BME280;67251;50.844;7.978;2023-02-01T10:33:26;99115.88;;;3.16;78.28
77877;BME280;67251;50.844;7.978;2023-02-01T10:36:16;99109.28;;;3.20;77.46
77877;BME280;67251;50.844;7.978;2023-02-01T10:38:42;99117.94;;;3.22;77.29
77877;BME280;67251;50.844;7.978;2023-02-01T10:41:15;99112.63;;;3.22;77.31
77877;BME280;67251;50.844;7.978;2023-02-01T10:43:43;99115.28;;;3.22;77.23
77877;BME280;67251;50.844;7.978;2023-02-01T10:46:10;99123.22;;;3.22;77.18
77877;BME280;67251;50.844;7.978;2023-02-01T10:48:37;99114.47;;;3.21;77.30
77877;BME280;67251;50.844;7.978;2023-02-01T10:51:23;99108.19;;;3.22;76.84
77877;BME280;67251;50.844;7.978;2023-02-01T10:53:57;99097.59;;;3.22;77.21
77877;BME280;67251;50.844;7.978;2023-02-01T10:56:25;99087.84;;;3.23;77.40
77877;BME280;67251;50.844;7.978;2023-02-01T10:58:51;99101.91;;;3.23;77.38
77877;BME280;67251;50.844;7.978;2023-02-01T11:01:25;99100.91;;;3.24;77.46
77877;BME280;67251;50.844;7.978;2023-02-01T11:04:01;99095.63;;;3.24;77.14
77877;BME280;67251;50.844;7.978;2023-02-01T11:06:47;99095.34;;;3.27;76.70
77877;BME280;67251;50.844;7.978;2023-02-01T11:09:24;99081.97;;;3.29;76.43
77877;BME280;67251;50.844;7.978;2023-02-01T11:16:55;99072.19;;;3.39;75.95
77877;BME280;67251;50.844;7.978;2023-02-01T11:19:23;99073.84;;;3.40;76.08
77877;BME280;67251;50.844;7.978;2023-02-01T11:21:50;99074.66;;;3.41;76.32
77877;BME280;67251;50.844;7.978;2023-02-01T11:24:25;99061.28;;;3.42;76.39
77877;BME280;67251;50.844;7.978;2023-02-01T11:26:55;99058.50;;;3.44;76.54
77877;BME280;67251;50.844;7.978;2023-02-01T11:29:22;99068.63;;;3.48;76.14
77877;BME280;67251;50.844;7.978;2023-02-01T11:31:56;99061.91;;;3.54;76.03
77877;BME280;67251;50.844;7.978;2023-02-01T11:34:26;99064.75;;;3.61;75.45
77877;BME280;67251;50.844;7.978;2023-02-01T11:36:55;99049.59;;;3.63;75.10
77877;BME280;67251;50.844;7.978;2023-02-01T11:39:35;99042.31;;;3.65;75.10
77877;BME280;67251;50.844;7.978;2023-02-01T11:42:15;99047.16;;;3.69;75.54
77877;BME280;67251;50.844;7.978;2023-02-01T11:44:42;99035.28;;;3.73;74.62
77877;BME280;67251;50.844;7.978;2023-02-01T11:49:50;99041.69;;;3.71;75.14
77877;BME280;67251;50.844;7.978;2023-02-01T11:52:29;99043.69;;;3.69;75.16
77877;BME280;67251;50.844;7.978;2023-02-01T12:03:09;99044.22;;;3.72;75.37
77877;BME280;67251;50.844;7.978;2023-02-01T12:12:14;99036.31;;;3.80;74.73
77877;BME280;67251;50.844;7.978;2023-02-01T12:14:51;99014.00;;;3.83;74.82
77877;BME280;67251;50.844;7.978;2023-02-01T12:26:38;99018.09;;;3.95;74.20
77877;BME280;67251;50.844;7.978;2023-02-01T12:29:35;99017.75;;;3.98;74.23
77877;BME280;67251;50.844;7.978;2023-02-01T12:32:12;99007.34;;;3.97;73.99
77877;BME280;67251;50.844;7.978;2023-02-01T12:43:37;98995.06;;;4.22;71.98
77877;BME280;67251;50.844;7.978;2023-02-01T12:46:40;98981.81;;;4.22;72.13
77877;BME280;67251;50.844;7.978;2023-02-01T12:49:17;98976.53;;;4.22;72.59
77877;BME280;67251;50.844;7.978;2023-02-01T12:51:46;98985.78;;;4.18;72.58
77877;BME280;67251;50.844;7.978;2023-02-01T12:57:02;98991.50;;;4.05;74.06
77877;BME280;67251;50.844;7.978;2023-02-01T12:59:38;98987.97;;;3.96;74.46
77877;BME280;67251;50.844;7.978;2023-02-01T13:05:16;98977.25;;;3.80;75.58
77877;BME280;67251;50.844;7.978;2023-02-01T13:10:40;98963.50;;;3.76;75.68
77877;BME280;67251;50.844;7.978;2023-02-01T13:15:58;98960.72;;;3.78;75.92
77877;BME280;67251;50.844;7.978;2023-02-01T13:18:26;98981.34;;;3.74;75.80
77877;BME280;67251;50.844;7.978;2023-02-01T13:21:10;98972.88;;;3.71;76.50
77877;BME280;67251;50.844;7.978;2023-02-01T13:23:40;98974.88;;;3.69;76.84
77877;BME280;67251;50.844;7.978;2023-02-01T13:26:05;98971.53;;;3.67;75.65
77877;BME280;67251;50.844;7.978;2023-02-01T13:31:24;98963.75;;;3.65;76.65
77877;BME280;67251;50.844;7.978;2023-02-01T13:34:34;98952.34;;;3.65;75.33
77877;BME280;67251;50.844;7.978;2023-02-01T13:45:12;98944.56;;;3.63;75.63
77877;BME280;67251;50.844;7.978;2023-02-01T13:47:41;98939.56;;;3.60;76.37
77877;BME280;67251;50.844;7.978;2023-02-01T13:52:45;98930.75;;;3.51;76.99
77877;BME280;67251;50.844;7.978;2023-02-01T13:57:46;98943.41;;;3.40;79.51
77877;BME280;67251;50.844;7.978;2023-02-01T14:00:33;98942.34;;;3.32;79.98
77877;BME280;67251;50.844;7.978;2023-02-01T14:13:35;98940.31;;;3.08;81.58
77877;BME280;67251;50.844;7.978;2023-02-01T14:26:43;98936.81;;;2.90;84.75
77877;BME280;67251;50.844;7.978;2023-02-01T14:29:22;98945.75;;;2.89;84.97
77877;BME280;67251;50.844;7.978;2023-02-01T14:34:50;98949.81;;;2.84;85.84
77877;BME280;67251;50.844;7.978;2023-02-01T14:39:53;98943.84;;;2.81;86.18
77877;BME280;67251;50.844;7.978;2023-02-01T14:47:41;98961.22;;;2.84;85.45
77877;BME280;67251;50.844;7.978;2023-02-01T14:52:35;98954.78;;;2.87;85.88
77877;BME280;67251;50.844;7.978;2023-02-01T14:55:16;98955.78;;;2.86;86.08
77877;BME280;67251;50.844;7.978;2023-02-01T14:57:46;98963.69;;;2.86;86.26
77877;BME280;67251;50.844;7.978;2023-02-01T15:00:24;98965.69;;;2.84;86.73
77877;BME280;67251;50.844;7.978;2023-02-01T15:02:51;98953.44;;;2.83;86.67
77877;BME280;67251;50.844;7.978;2023-02-01T15:05:33;98963.03;;;2.84;86.32
77877;BME280;67251;50.844;7.978;2023-02-01T15:08:17;98962.03;;;2.85;86.70
77877;BME280;67251;50.844;7.978;2023-02-01T15:10:45;98959.41;;;2.85;86.29
77877;BME280;67251;50.844;7.978;2023-02-01T15:13:24;98968.31;;;2.84;86.23
77877;BME280;67251;50.844;7.978;2023-02-01T15:16:11;98960.94;;;2.87;85.82
77877;BME280;67251;50.844;7.978;2023-02-01T15:18:38;98968.84;;;2.87;86.07
77877;BME280;67251;50.844;7.978;2023-02-01T15:21:04;98974.97;;;2.88;85.92
77877;BME280;67251;50.844;7.978;2023-02-01T15:23:31;98975.63;;;2.90;86.16
77877;BME280;67251;50.844;7.978;2023-02-01T15:25:56;98963.25;;;2.90;86.59
77877;BME280;67251;50.844;7.978;2023-02-01T15:28:22;98959.63;;;2.91;86.33
77877;BME280;67251;50.844;7.978;2023-02-01T15:30:57;98967.25;;;2.94;85.87
77877;BME280;67251;50.844;7.978;2023-02-01T15:33:24;98967.81;;;2.98;84.92
77877;BME280;67251;50.844;7.978;2023-02-01T15:35:52;98965.38;;;3.04;84.87
77877;BME280;67251;50.844;7.978;2023-02-01T15:38:21;98967.72;;;3.07;84.89
77877;BME280;67251;50.844;7.978;2023-02-01T15:44:34;98974.84;;;3.07;84.33
77877;BME280;67251;50.844;7.978;2023-02-01T15:46:39;98976.50;;;3.08;84.49
77877;BME280;67251;50.844;7.978;2023-02-01T15:49:31;98984.59;;;3.06;85.20
77877;BME280;67251;50.844;7.978;2023-02-01T15:52:01;98992.50;;;3.06;84.82
77877;BME280;67251;50.844;7.978;2023-02-01T15:54:38;98995.16;;;3.06;85.48
77877;BME280;67251;50.844;7.978;2023-02-01T15:57:07;98991.81;;;3.04;85.40